Time;durP1;ratioP1;P1;durP2;ratioP2;P2;SDS_P1;SDS_P2;PMS_P1;PMS_P2;Temp;Humidity;BMP_temperature;BMP_pressure;BME280_temperature;BME280_humidity;BME280_pressure;Samples;Min_cycle;Max_cycle;Signal;HPM_P1;HPM_P2
2022/02/20 00:07:25;;;;;;;6.17;2.93;;;;;;;4.94;85.96;99684.53;713101;1177;113926;-75
2022/02/20 00:22:28;;;;;;;8.17;3.40;;;;;;;4.93;85.42;99686.28;712951;1175;114914;-74
2022/02/20 00:37:30;;;;;;;7.80;3.95;;;;;;;4.86;84.47;99673.85;713076;1174;114470;-74
2022/02/20 00:52:32;;;;;;;9.10;4.63;;;;;;;4.83;84.06;99675.75;712903;1174;114079;-75
2022/02/20 01:07:35;;;;;;;12.50;4.60;;;;;;;4.78;83.19;99672.66;712951;1174;115111;-75
2022/02/20 01:22:37;;;;;;;7.30;3.85;;;;;;;4.70;82.03;99654.22;713002;1174;115110;-75
2022/02/20 01:37:39;;;;;;;11.90;4.25;;;;;;;4.60;80.47;99648.84;713220;1174;114488;-75
2022/02/20 01:52:43;;;;;;;7.60;4.10;;;;;;;4.66;79.89;99612.03;712965;1174;114475;-75
2022/02/20 02:07:45;;;;;;;7.80;3.63;;;;;;;4.69;79.00;99597.17;713026;1174;114760;-75
2022/02/20 02:22:48;;;;;;;9.73;4.20;;;;;;;4.58;77.87;99570.21;712919;1174;114577;-75
2022/02/20 02:37:52;;;;;;;8.40;4.33;;;;;;;4.52;77.47;99542.08;712993;1175;114842;-75
2022/02/20 02:52:54;;;;;;;9.20;4.30;;;;;;;4.42;77.89;99535.91;713268;1174;113698;-75
2022/02/20 03:07:56;;;;;;;10.13;3.90;;;;;;;4.38;77.85;99519.75;713059;1174;114184;-75
2022/02/20 03:22:58;;;;;;;9.05;4.23;;;;;;;4.36;77.24;99489.64;712993;1174;115586;-74
2022/02/20 03:38:00;;;;;;;17.35;5.40;;;;;;;4.36;77.91;99472.28;713196;1174;113670;-75
2022/02/20 03:53:02;;;;;;;9.65;3.88;;;;;;;4.33;76.76;99459.53;712959;1174;114664;-74
2022/02/20 04:08:06;;;;;;;12.10;4.65;;;;;;;4.21;77.54;99437.06;713087;1174;115184;-76
2022/02/20 04:23:08;;;;;;;13.65;4.05;;;;;;;4.24;77.13;99431.66;713040;1174;114568;-75
2022/02/20 04:38:10;;;;;;;10.77;5.23;;;;;;;4.21;76.98;99424.94;712997;1173;114729;-75
2022/02/20 04:53:13;;;;;;;10.20;3.73;;;;;;;4.33;78.07;99417.98;712916;1174;114535;-76
2022/02/20 05:08:16;;;;;;;10.38;3.78;;;;;;;4.30;77.56;99400.02;713855;1174;115111;-76
2022/02/20 05:23:18;;;;;;;10.88;4.00;;;;;;;4.31;78.18;99391.30;713250;1174;114590;-74
2022/02/20 05:38:20;;;;;;;15.33;4.13;;;;;;;4.29;78.52;99391.42;713364;1174;115275;-75
2022/02/20 05:53:22;;;;;;;12.03;4.58;;;;;;;4.35;78.57;99394.50;713067;1174;114624;-75
2022/02/20 06:08:24;;;;;;;8.48;3.30;;;;;;;4.32;81.56;99369.58;713456;1174;115319;-75
2022/02/20 06:23:26;;;;;;;9.58;3.35;;;;;;;4.04;84.76;99381.22;713889;1174;114218;-77
2022/02/20 06:38:28;;;;;;;201.70;81.63;;;;;;;3.74;87.23;99378.21;714058;1174;114300;-76
2022/02/20 06:53:30;;;;;;;20.20;14.55;;;;;;;3.62;88.69;99364.38;713781;1174;115554;-77
2022/02/20 07:08:32;;;;;;;9.80;6.20;;;;;;;3.52;92.66;99378.95;713928;1177;114023;-75
2022/02/20 07:23:35;;;;;;;13.95;8.23;;;;;;;3.60;93.79;99365.43;713844;1174;115186;-79
2022/02/20 07:38:38;;;;;;;10.88;6.68;;;;;;;3.60;95.39;99360.24;717575;1176;114576;-80
2022/02/20 07:53:41;;;;;;;19.70;12.53;;;;;;;3.80;96.23;99349.23;716641;1174;115384;-76
2022/02/20 08:08:43;;;;;;;14.35;9.70;;;;;;;4.03;97.74;99338.88;714518;1175;115063;-76
2022/02/20 08:23:46;;;;;;;18.73;9.18;;;;;;;4.14;97.93;99335.46;715325;1175;115302;-76
2022/02/20 08:38:48;;;;;;;11.47;7.23;;;;;;;4.24;99.02;99330.41;715020;1174;115217;-76
2022/02/20 08:53:51;;;;;;;17.85;9.10;;;;;;;4.27;100.00;99320.59;714482;1174;113875;-78
2022/02/20 09:08:53;;;;;;;43.30;19.78;;;;;;;4.39;100.00;99329.20;715197;1176;113968;-78
2022/02/20 09:23:56;;;;;;;21.40;8.73;;;;;;;4.47;100.00;99332.05;714802;1174;115191;-79
2022/02/20 09:38:58;;;;;;;29.50;13.00;;;;;;;4.74;100.00;99329.98;715891;1174;114239;-79
2022/02/20 09:54:01;;;;;;;42.55;16.43;;;;;;;4.82;100.00;99351.02;716269;1174;114286;-79
2022/02/20 10:09:03;;;;;;;30.03;17.05;;;;;;;4.91;100.00;99339.05;716841;1174;114133;-78
2022/02/20 10:24:08;;;;;;;100.10;33.03;;;;;;;5.13;100.00;99317.36;715578;1174;115598;-78
2022/02/20 10:39:29;;;;;;;71.50;28.80;;;;;;;5.20;100.00;99317.69;716874;1174;114446;-79
2022/02/20 10:54:32;;;;;;;41.93;17.88;;;;;;;5.31;100.00;99328.06;715481;1174;114523;-79
2022/02/20 11:09:34;;;;;;;22.60;12.90;;;;;;;5.38;100.00;99329.20;715880;1174;114953;-79
2022/02/20 11:24:40;;;;;;;18.15;10.33;;;;;;;5.44;100.00;99315.70;714900;1174;115856;-78
2022/02/20 11:40:02;;;;;;;70.95;27.45;;;;;;;5.62;98.80;99307.31;714818;1174;115368;-75
2022/02/20 11:55:13;;;;;;;29.63;14.73;;;;;;;5.84;98.65;99321.98;714676;1174;115447;-75
2022/02/20 12:10:20;;;;;;;35.20;15.83;;;;;;;5.89;97.85;99319.00;714606;1174;114243;-77
2022/02/20 12:25:37;;;;;;;67.37;27.87;;;;;;;5.97;96.67;99319.17;714912;1174;113927;-76
2022/02/20 12:40:44;;;;;;;59.43;23.33;;;;;;;5.93;95.66;99334.22;714553;1176;115124;-76
2022/02/20 12:55:47;;;;;;;48.60;20.68;;;;;;;6.01;95.40;99328.41;715137;1177;114256;-75
2022/02/20 13:10:51;;;;;;;53.50;21.90;;;;;;;6.11;94.97;99320.63;715924;1176;113868;-77
2022/02/20 13:26:09;;;;;;;57.08;23.45;;;;;;;6.01;94.84;99314.58;715442;1177;114610;-75
2022/02/20 13:41:15;;;;;;;36.65;16.45;;;;;;;6.01;95.07;99302.38;714561;1174;114221;-74
2022/02/20 13:56:21;;;;;;;34.75;18.50;;;;;;;6.08;94.77;99280.05;714809;1176;114807;-74
2022/02/20 14:11:32;;;;;;;18.05;9.43;;;;;;;6.01;94.51;99283.33;714577;1164;114568;-74
2022/02/20 14:26:35;;;;;;;23.25;10.83;;;;;;;5.85;93.30;99287.19;714701;1174;114634;-74
2022/02/20 14:41:37;;;;;;;33.37;15.30;;;;;;;5.88;93.51;99281.72;715125;1173;113917;-75
2022/02/20 14:56:40;;;;;;;13.70;7.80;;;;;;;5.93;93.15;99265.72;714702;1175;114017;-75
2022/02/20 15:11:45;;;;;;;37.05;12.20;;;;;;;5.90;92.68;99245.98;714848;1174;114670;-76
2022/02/20 15:26:47;;;;;;;22.68;10.83;;;;;;;5.94;92.40;99197.09;714644;1176;114020;-75
2022/02/20 15:41:53;;;;;;;23.18;10.88;;;;;;;5.88;92.20;99189.80;715402;1174;114011;-75
2022/02/20 15:56:55;;;;;;;13.95;8.20;;;;;;;5.80;92.11;99167.84;714857;1174;115508;-74
2022/02/20 16:11:59;;;;;;;11.75;6.88;;;;;;;5.76;92.48;99147.42;715035;1174;114441;-76
2022/02/20 16:27:02;;;;;;;12.93;8.37;;;;;;;5.72;92.78;99146.86;714881;1174;113846;-77
2022/02/20 16:42:05;;;;;;;10.65;7.00;;;;;;;5.73;92.24;99126.85;714556;1174;115051;-76
2022/02/20 16:57:07;;;;;;;13.03;9.03;;;;;;;5.62;91.84;99122.58;714765;1174;115367;-74
2022/02/20 17:12:10;;;;;;;33.53;19.23;;;;;;;5.54;93.01;99101.61;714555;1174;114341;-76
2022/02/20 17:27:14;;;;;;;14.03;9.10;;;;;;;5.47;94.05;99076.11;717016;1174;113895;-75
2022/02/20 17:42:17;;;;;;;17.90;10.00;;;;;;;5.38;95.55;99052.68;714419;1176;113735;-82
2022/02/20 17:57:20;;;;;;;17.58;9.70;;;;;;;5.40;96.13;99033.39;716486;1175;115040;-82
2022/02/20 18:12:24;;;;;;;18.47;9.83;;;;;;;5.31;98.09;99000.38;716519;1174;115338;-74
2022/02/20 18:27:29;;;;;;;17.47;9.87;;;;;;;5.26;99.87;98974.75;714312;1177;114915;-77
2022/02/20 18:42:33;;;;;;;17.90;9.55;;;;;;;5.24;100.00;98921.23;715447;1175;113816;-82
2022/02/20 18:57:37;;;;;;;18.18;9.68;;;;;;;5.26;100.00;98869.94;716543;1175;113992;-82
2022/02/20 19:12:41;;;;;;;24.18;12.95;;;;;;;5.15;100.00;98805.89;716168;1176;115577;-81
2022/02/20 19:27:44;;;;;;;18.87;10.17;;;;;;;5.22;100.00;98746.36;716304;1177;114218;-82
2022/02/20 19:42:51;;;;;;;16.93;9.43;;;;;;;5.17;100.00;98702.56;716280;1177;114141;-82
2022/02/20 19:57:56;;;;;;;20.08;9.48;;;;;;;5.31;100.00;98659.72;717001;1177;114759;-81
2022/02/20 20:13:00;;;;;;;15.20;8.88;;;;;;;5.58;100.00;98637.31;716778;1174;114549;-86
2022/02/20 20:28:04;;;;;;;26.43;12.98;;;;;;;5.70;100.00;98602.34;716974;1175;113948;-85
2022/02/20 20:43:08;;;;;;;22.75;10.30;;;;;;;6.04;100.00;98567.91;716605;1174;115664;-75
2022/02/20 20:58:10;;;;;;;17.65;9.73;;;;;;;6.38;100.00;98540.38;714745;1174;115909;-74
2022/02/20 21:13:12;;;;;;;13.30;7.50;;;;;;;6.85;100.00;98523.58;714406;1174;114840;-76
2022/02/20 21:28:22;;;;;;;12.28;7.10;;;;;;;7.16;100.00;98496.03;713763;1174;115426;-74
2022/02/20 21:43:25;;;;;;;8.43;6.33;;;;;;;7.42;100.00;98466.45;714319;1174;114012;-74
2022/02/20 21:58:27;;;;;;;11.63;6.60;;;;;;;7.64;100.00;98441.55;713600;1176;114462;-75
2022/02/20 22:13:30;;;;;;;12.53;7.67;;;;;;;7.95;100.00;98419.21;713354;1175;114625;-75
2022/02/20 22:28:34;;;;;;;11.80;8.40;;;;;;;8.04;100.00;98367.77;714200;1174;114894;-75
2022/02/20 22:43:36;;;;;;;12.50;8.93;;;;;;;8.18;100.00;98366.30;714150;1176;113988;-76
2022/02/20 22:58:38;;;;;;;11.30;8.05;;;;;;;8.28;100.00;98325.94;713899;1175;114014;-75
2022/02/20 23:13:40;;;;;;;9.75;6.53;;;;;;;8.36;100.00;98309.42;713930;1177;114410;-75
2022/02/20 23:28:43;;;;;;;8.83;5.83;;;;;;;8.44;100.00;98283.25;713620;1176;115202;-75
2022/02/20 23:43:46;;;;;;;8.28;6.25;;;;;;;8.41;100.00;98267.92;714100;1174;115436;-75
2022/02/20 23:58:48;;;;;;;10.37;6.40;;;;;;;8.42;100.00;98230.36;713278;1174;114573;-75
